South Bend Regional Airport
KSBN : rendu visible

Aérodrome :











RETROUVEZ-NOUS SUR...

 
LOGIN :

S'inscrire | Disclaimer

   EN    FR    IT 

 









Légende :    VFR   VFR Marginal   IFR   IFR Intensif   IFR Très Intensif
Visi : 
Plafond : 
>= 8 km
>= 3000ft
5 à 8 km
1000 à 3000 ft
1500m à 5 km
500 à 1000 ft
800 à 1500m
200 à 500 ft
< 800m
< 200 ft
Symboles :   Orages  Brouillard  Fortes neiges  Fortes précipitations  Vent > 20 kt






- Altitude de l'aérodrome : 799 ft
- Code IATA : SBN


KSBN - South Bend Regional

DERNIER METAR :
  • 191454Z 00000KT 10SM OVC020 04/M01 A2981 RMK AO2 SLP100 T00391006 53009

METARs EXPIRÉS :
  • 191354Z 00000KT 10SM OVC020 03/M01 A2979 RMK AO2 SLP094 T00331006
  • 191254Z 00000KT 10SM OVC019 02/M01 A2979 RMK AO2 SLP094 T00221006

TAF KSBN
Valide du 19 à 12h jusqu'au 20 à 12h UTC


191136Z 1912/2012 20003KT P6SM OVC015
FM192100 19003KT P6SM VCSH SCT015 OVC020



MET'MAP, la Météo Aéronautique d'un coup d'oeil ! - Copyright ORBIFLY Décembre 2007 - Disclaimer

ORBIFLY MET'MAP TEAM :

Programmation & Développement : Alexandra Zaïnal
Conception & Développement : Baudouin d'Aumeries
Co-Programmation & Développement : Marc-Olivier Méhu
Soutien technique & logistique : Manuel Goepfert

Contact : metmap@orbifly.com




SOURCES & CREDITS :

   NOAA       Earth
Advisory